createdAt,value
2023-02-02T00:01:14.963Z,93.51
2023-02-02T00:03:43.014Z,93.46
2023-02-02T00:06:09.955Z,93.21
2023-02-02T00:08:38.468Z,93.39
2023-02-02T00:11:06.479Z,93.30
2023-02-02T00:13:35.798Z,93.26
2023-02-02T00:16:27.691Z,93.42
2023-02-02T00:18:58.450Z,93.30
2023-02-02T00:21:28.368Z,93.37
2023-02-02T00:23:58.019Z,93.23
2023-02-02T00:26:25.180Z,93.34
2023-02-02T00:28:52.943Z,93.47
2023-02-02T00:31:19.788Z,93.52
2023-02-02T00:33:48.547Z,93.57
2023-02-02T00:36:18.652Z,93.54
2023-02-02T00:38:50.399Z,93.63
2023-02-02T00:41:17.838Z,93.68
2023-02-02T00:43:45.180Z,93.88
2023-02-02T00:46:17.073Z,93.88
2023-02-02T00:48:43.693Z,94.44
2023-02-02T00:51:13.079Z,94.34
2023-02-02T00:53:39.616Z,94.32
2023-02-02T00:56:08.653Z,94.09
2023-02-02T00:58:35.320Z,94.13
2023-02-02T01:01:01.947Z,94.48
2023-02-02T01:03:29.073Z,94.36
2023-02-02T01:05:58.432Z,94.13
2023-02-02T01:08:27.216Z,94.20
2023-02-02T01:10:53.840Z,94.37
2023-02-02T01:13:20.744Z,94.55
2023-02-02T01:15:47.587Z,94.59
2023-02-02T01:18:16.628Z,94.60
2023-02-02T01:20:43.481Z,94.61
2023-02-02T01:23:10.160Z,94.79
2023-02-02T01:25:38.822Z,94.37
2023-02-02T01:28:07.604Z,94.34
2023-02-02T01:30:34.180Z,94.62
2023-02-02T01:33:03.349Z,94.30
2023-02-02T01:35:30.386Z,94.21
2023-02-02T01:37:58.493Z,94.09
2023-02-02T01:40:25.357Z,94.16
2023-02-02T01:42:55.114Z,94.11
2023-02-02T01:45:29.325Z,93.90
2023-02-02T01:47:59.861Z,93.75
2023-02-02T01:54:11.784Z,93.25
2023-02-02T01:56:47.324Z,93.15
2023-02-02T01:59:18.366Z,93.01
2023-02-02T02:01:47.686Z,92.79
2023-02-02T02:04:15.825Z,93.02
2023-02-02T02:06:46.129Z,93.14
2023-02-02T02:09:12.956Z,93.15
2023-02-02T02:11:39.832Z,93.09
2023-02-02T02:14:29.317Z,93.52
2023-02-02T02:17:11.238Z,93.47
2023-02-02T02:20:18.407Z,93.75
2023-02-02T02:23:19.281Z,93.79
2023-02-02T02:26:34.753Z,94.01
2023-02-02T02:29:41.491Z,94.25
2023-02-02T02:32:20.203Z,94.34
2023-02-02T02:35:00.386Z,94.45
2023-02-02T02:37:39.198Z,94.77
2023-02-02T02:40:22.210Z,94.68
2023-02-02T02:43:12.853Z,94.96
2023-02-02T02:45:40.023Z,94.93
2023-02-02T02:48:12.798Z,95.17
2023-02-02T02:50:52.694Z,95.29
2023-02-02T02:53:22.950Z,95.18
2023-02-02T02:56:23.984Z,95.29
2023-02-02T02:58:53.089Z,95.23
2023-02-02T03:01:38.139Z,95.36
2023-02-02T03:04:14.919Z,95.42
2023-02-02T03:06:54.191Z,95.31
2023-02-02T03:09:29.846Z,95.29
2023-02-02T03:11:57.156Z,95.03
2023-02-02T03:14:26.701Z,94.84
2023-02-02T03:16:54.584Z,94.76
2023-02-02T03:19:21.531Z,94.66
2023-02-02T03:21:50.793Z,94.75
2023-02-02T03:24:17.449Z,94.50
2023-02-02T03:26:46.037Z,94.28
2023-02-02T03:29:13.458Z,94.05
2023-02-02T03:31:40.399Z,94.03
2023-02-02T03:34:07.289Z,94.04
2023-02-02T03:36:33.763Z,93.99
2023-02-02T03:39:00.571Z,93.71
2023-02-02T03:41:27.329Z,93.50
2023-02-02T03:43:53.881Z,93.73
2023-02-02T03:46:22.993Z,93.52
2023-02-02T03:48:51.150Z,93.57
2023-02-02T03:51:20.509Z,93.41
2023-02-02T03:53:49.864Z,93.37
2023-02-02T03:56:19.622Z,93.33
2023-02-02T03:58:47.517Z,93.26
2023-02-02T04:01:15.835Z,93.41
2023-02-02T04:03:43.692Z,92.90
2023-02-02T04:06:10.231Z,92.91
2023-02-02T04:08:37.120Z,92.76
2023-02-02T04:11:03.812Z,92.94
2023-02-02T04:13:30.935Z,92.47
2023-02-02T04:16:00.384Z,92.60
2023-02-02T04:18:29.300Z,92.75
2023-02-02T04:21:02.337Z,92.57
2023-02-02T04:23:32.119Z,92.54
2023-02-02T04:25:59.509Z,92.26
2023-02-02T04:28:29.677Z,92.31
2023-02-02T04:30:56.908Z,92.35
2023-02-02T04:33:28.453Z,92.18
2023-02-02T04:35:55.487Z,92.02
2023-02-02T04:38:27.132Z,91.56
2023-02-02T04:40:53.747Z,91.65
2023-02-02T04:43:20.647Z,91.62
2023-02-02T04:45:50.513Z,91.48
2023-02-02T04:48:17.337Z,91.58
2023-02-02T04:50:43.922Z,91.41
2023-02-02T04:53:10.697Z,91.39
2023-02-02T04:55:38.377Z,91.14
2023-02-02T04:58:06.394Z,90.75
2023-02-02T05:00:33.247Z,90.64
2023-02-02T05:03:01.761Z,90.77
2023-02-02T05:05:28.751Z,90.84
2023-02-02T05:07:55.380Z,90.98
2023-02-02T05:10:21.901Z,91.06
2023-02-02T05:12:48.754Z,90.67
2023-02-02T05:15:15.683Z,91.09
2023-02-02T05:17:42.314Z,90.75
2023-02-02T05:20:09.883Z,90.85
2023-02-02T05:22:39.896Z,90.97
2023-02-02T05:25:09.012Z,91.04
2023-02-02T05:27:36.059Z,91.04
2023-02-02T05:30:02.622Z,90.97
2023-02-02T05:32:31.591Z,91.04
2023-02-02T05:34:58.492Z,90.87
2023-02-02T05:37:26.342Z,90.90
2023-02-02T05:39:54.310Z,90.94
2023-02-02T05:42:24.659Z,91.12
2023-02-02T05:44:52.872Z,91.04
2023-02-02T05:47:19.818Z,91.00
2023-02-02T05:49:46.313Z,90.95
2023-02-02T05:52:19.947Z,90.80
2023-02-02T05:54:46.877Z,91.04
2023-02-02T05:57:13.745Z,91.01
2023-02-02T05:59:40.665Z,91.05
2023-02-02T06:02:07.528Z,91.22
2023-02-02T06:04:36.618Z,91.07
2023-02-02T06:07:03.426Z,91.33
2023-02-02T06:09:32.882Z,91.37
2023-02-02T06:11:59.554Z,91.60
2023-02-02T06:14:26.430Z,91.67
2023-02-02T06:16:58.505Z,91.82
2023-02-02T06:19:27.763Z,91.68
2023-02-02T06:21:54.558Z,92.22
2023-02-02T06:24:21.434Z,92.07
2023-02-02T06:26:48.314Z,92.52
2023-02-02T06:29:21.436Z,92.66
2023-02-02T06:31:48.718Z,92.72
2023-02-02T06:34:15.758Z,92.63
2023-02-02T06:36:42.528Z,92.77
2023-02-02T06:39:10.068Z,93.23
2023-02-02T06:41:36.777Z,93.24
2023-02-02T06:44:06.419Z,93.18
2023-02-02T06:46:33.694Z,93.21
2023-02-02T06:49:00.580Z,93.54
2023-02-02T06:51:27.455Z,93.58
2023-02-02T06:53:54.330Z,93.34
2023-02-02T06:56:22.938Z,93.29
2023-02-02T06:58:50.825Z,93.99
2023-02-02T07:01:20.546Z,93.96
2023-02-02T07:03:51.272Z,94.02
2023-02-02T07:06:25.345Z,94.17
2023-02-02T07:09:01.900Z,93.99
2023-02-02T07:11:31.459Z,94.27
2023-02-02T07:13:58.983Z,94.52
2023-02-02T07:16:29.012Z,94.40
2023-02-02T07:18:59.561Z,94.64
2023-02-02T07:21:29.665Z,94.57
2023-02-02T07:23:56.187Z,94.82
2023-02-02T07:26:54.505Z,94.64
2023-02-02T07:29:21.408Z,94.62
2023-02-02T07:31:49.295Z,94.63
2023-02-02T07:34:16.887Z,94.80
2023-02-02T07:36:43.518Z,94.88
2023-02-02T07:39:14.087Z,94.63
2023-02-02T07:41:46.284Z,94.82
2023-02-02T07:44:17.936Z,94.99
2023-02-02T07:46:47.560Z,95.04
2023-02-02T07:49:16.469Z,94.91
2023-02-02T07:51:48.334Z,94.93
2023-02-02T07:54:18.135Z,94.80
2023-02-02T07:56:44.789Z,94.79
2023-02-02T07:59:15.018Z,94.52
2023-02-02T08:01:41.937Z,94.83
2023-02-02T08:04:09.004Z,94.48
2023-02-02T08:06:38.548Z,94.48
2023-02-02T08:09:11.043Z,94.19
2023-02-02T08:11:40.348Z,94.13
2023-02-02T08:14:07.147Z,94.06
2023-02-02T08:16:35.804Z,93.97
2023-02-02T08:19:04.922Z,93.77
2023-02-02T08:21:35.147Z,93.46
2023-02-02T08:24:08.353Z,93.37
2023-02-02T08:26:36.748Z,93.32
2023-02-02T08:29:08.222Z,93.30
2023-02-02T08:31:37.143Z,92.99
2023-02-02T08:34:04.871Z,92.97
2023-02-02T08:36:31.836Z,92.69
2023-02-02T08:39:05.184Z,92.52
2023-02-02T08:41:33.422Z,92.58
2023-02-02T08:44:02.232Z,92.52
2023-02-02T08:46:29.273Z,92.29
2023-02-02T08:48:56.030Z,92.46
2023-02-02T08:51:23.607Z,92.21
2023-02-02T08:53:50.259Z,92.14
2023-02-02T08:56:23.098Z,91.90
2023-02-02T08:58:53.199Z,91.70
2023-02-02T09:01:27.646Z,91.40
2023-02-02T09:03:56.075Z,91.61
2023-02-02T09:06:25.673Z,91.31
2023-02-02T09:08:55.162Z,91.19
2023-02-02T09:11:22.464Z,90.90
2023-02-02T09:14:10.768Z,90.57
2023-02-02T09:16:40.457Z,90.52
2023-02-02T09:19:07.755Z,90.55
2023-02-02T09:21:40.006Z,90.28
2023-02-02T09:24:09.336Z,90.38
2023-02-02T09:26:40.544Z,90.42
2023-02-02T09:29:11.167Z,90.13
2023-02-02T09:31:38.624Z,90.09
2023-02-02T09:34:10.849Z,89.84
2023-02-02T09:36:38.813Z,90.00
2023-02-02T09:39:06.014Z,89.76
2023-02-02T09:41:41.800Z,89.58
2023-02-02T09:44:51.227Z,89.66
2023-02-02T09:47:40.177Z,89.58
2023-02-02T09:50:47.406Z,89.60
2023-02-02T09:53:54.833Z,89.55
2023-02-02T09:56:26.265Z,89.76
2023-02-02T09:58:57.023Z,89.57
2023-02-02T10:01:31.968Z,89.46
2023-02-02T10:04:21.125Z,89.31
2023-02-02T10:06:54.343Z,89.35
2023-02-02T10:09:42.328Z,89.26
2023-02-02T10:12:21.369Z,89.18
2023-02-02T10:15:13.440Z,89.12
2023-02-02T10:18:05.912Z,89.11
2023-02-02T10:20:45.652Z,89.21
2023-02-02T10:23:27.567Z,88.97
2023-02-02T10:26:08.493Z,88.92
2023-02-02T10:28:49.383Z,88.99
2023-02-02T10:31:58.077Z,89.00
2023-02-02T10:34:43.554Z,88.97
2023-02-02T10:37:38.280Z,88.98
2023-02-02T10:40:47.376Z,88.98
2023-02-02T10:44:00.565Z,89.05
2023-02-02T10:46:53.211Z,88.93
2023-02-02T10:49:33.849Z,89.21
2023-02-02T10:52:20.301Z,89.22
2023-02-02T10:55:21.274Z,89.32
2023-02-02T10:58:20.194Z,89.40
2023-02-02T11:00:53.263Z,89.51
2023-02-02T11:03:27.159Z,89.37
2023-02-02T11:06:12.132Z,89.34
2023-02-02T11:08:43.230Z,89.23
2023-02-02T11:11:16.806Z,89.24
2023-02-02T11:13:53.699Z,89.21
2023-02-02T11:16:23.499Z,89.13
2023-02-02T11:18:53.658Z,89.13
2023-02-02T11:21:22.005Z,89.20
2023-02-02T11:24:01.279Z,89.16
2023-02-02T11:26:43.534Z,89.07
2023-02-02T11:29:20.863Z,88.97
2023-02-02T11:31:48.824Z,88.67
2023-02-02T11:34:28.546Z,88.63
2023-02-02T11:37:14.625Z,88.54
2023-02-02T11:39:42.681Z,88.27
2023-02-02T11:42:24.345Z,88.14
2023-02-02T11:44:58.173Z,88.10
2023-02-02T11:47:28.533Z,87.97
2023-02-02T11:49:59.101Z,88.11
2023-02-02T11:52:27.872Z,87.96
2023-02-02T11:55:05.213Z,87.49
2023-02-02T11:57:32.125Z,87.83
2023-02-02T12:00:10.924Z,87.51
2023-02-02T12:02:46.845Z,87.45
2023-02-02T12:05:23.889Z,87.30
2023-02-02T12:08:10.373Z,87.35
2023-02-02T12:10:50.138Z,87.07
2023-02-02T12:13:51.847Z,87.14
2023-02-02T12:16:27.439Z,87.29
2023-02-02T12:19:16.271Z,87.52
2023-02-02T12:22:08.899Z,87.36
2023-02-02T12:25:19.245Z,87.51
2023-02-02T12:28:03.930Z,87.51
2023-02-02T12:30:41.950Z,87.43
2023-02-02T12:33:32.817Z,87.50
2023-02-02T12:36:07.888Z,87.31
2023-02-02T12:39:25.265Z,87.68
2023-02-02T12:42:22.156Z,87.63
2023-02-02T12:45:11.069Z,87.72
2023-02-02T12:47:44.735Z,87.89
2023-02-02T12:50:36.041Z,87.78
2023-02-02T12:53:18.477Z,87.84
2023-02-02T12:55:59.245Z,87.82
2023-02-02T12:58:48.850Z,87.84
2023-02-02T13:01:38.914Z,87.96
2023-02-02T13:07:50.100Z,88.11
2023-02-02T13:10:17.417Z,88.27
2023-02-02T13:12:57.927Z,88.58
2023-02-02T13:15:32.935Z,88.81
2023-02-02T13:18:08.382Z,88.78
2023-02-02T13:20:46.592Z,89.13
2023-02-02T13:23:13.713Z,89.22
2023-02-02T13:25:48.769Z,89.56
2023-02-02T13:28:48.744Z,89.96
2023-02-02T13:31:36.402Z,90.32
2023-02-02T13:34:23.764Z,90.65
2023-02-02T13:37:08.749Z,91.07
2023-02-02T13:39:49.992Z,91.30
2023-02-02T13:42:38.060Z,91.67
2023-02-02T13:45:20.540Z,91.85
2023-02-02T13:47:54.585Z,91.96
2023-02-02T13:50:26.613Z,92.12
2023-02-02T13:53:08.719Z,92.65
2023-02-02T13:55:54.532Z,92.69
2023-02-02T13:58:37.440Z,92.70
2023-02-02T14:01:09.442Z,93.01
2023-02-02T14:03:46.281Z,93.09
2023-02-02T14:06:27.807Z,93.35
2023-02-02T14:08:57.755Z,93.64
2023-02-02T14:11:48.480Z,93.61
2023-02-02T14:14:33.866Z,93.51
2023-02-02T14:17:14.022Z,93.74
2023-02-02T14:19:43.389Z,93.65
2023-02-02T14:22:09.952Z,93.90
2023-02-02T14:24:45.593Z,94.00
2023-02-02T14:27:12.136Z,94.06
2023-02-02T14:29:50.311Z,93.97
2023-02-02T14:32:30.113Z,93.99
2023-02-02T14:35:08.752Z,94.01
2023-02-02T14:37:47.750Z,94.12
2023-02-02T14:40:39.405Z,94.21
2023-02-02T14:43:42.605Z,94.31
2023-02-02T14:46:32.962Z,94.45
2023-02-02T14:49:03.567Z,94.36
2023-02-02T14:51:33.699Z,94.41
2023-02-02T14:54:04.935Z,94.53
2023-02-02T14:56:54.469Z,94.79
2023-02-02T14:59:32.513Z,94.94
2023-02-02T15:02:16.867Z,94.90
2023-02-02T15:04:45.469Z,94.73
2023-02-02T15:07:24.126Z,94.78
2023-02-02T15:09:52.560Z,95.07
2023-02-02T15:12:27.176Z,95.12
2023-02-02T15:15:08.343Z,95.29
2023-02-02T15:17:45.019Z,95.21
2023-02-02T15:20:23.766Z,95.25
2023-02-02T15:23:05.997Z,95.36
2023-02-02T15:25:50.260Z,95.37
2023-02-02T15:28:39.387Z,95.49
2023-02-02T15:31:13.428Z,95.58
2023-02-02T15:33:44.335Z,95.58
2023-02-02T15:36:18.124Z,95.54
2023-02-02T15:38:48.843Z,95.66
2023-02-02T15:41:41.689Z,96.00
2023-02-02T15:44:28.459Z,95.70
2023-02-02T15:46:58.344Z,95.68
2023-02-02T15:49:36.071Z,95.79
2023-02-02T15:52:28.776Z,95.95
2023-02-02T15:54:58.593Z,95.81
2023-02-02T15:57:37.337Z,95.93
2023-02-02T16:00:26.802Z,95.99
2023-02-02T16:02:57.634Z,95.99
2023-02-02T16:05:32.107Z,95.79
2023-02-02T16:08:07.532Z,95.69
2023-02-02T16:10:36.924Z,95.67
2023-02-02T16:13:03.931Z,95.87
2023-02-02T16:15:33.976Z,95.90
2023-02-02T16:18:07.303Z,95.93
2023-02-02T16:20:37.464Z,96.08
2023-02-02T16:23:10.419Z,96.07
2023-02-02T16:25:47.065Z,95.99
2023-02-02T16:28:22.199Z,96.02
2023-02-02T16:30:52.006Z,96.36
2023-02-02T16:33:40.068Z,96.24
2023-02-02T16:36:24.381Z,96.10
2023-02-02T16:38:53.176Z,96.20
2023-02-02T16:41:33.982Z,96.28
2023-02-02T16:44:30.873Z,96.05
2023-02-02T16:47:01.526Z,96.16
2023-02-02T16:49:31.505Z,96.06
2023-02-02T16:52:21.461Z,95.92
2023-02-02T16:54:55.429Z,95.91
2023-02-02T16:57:27.031Z,95.94
2023-02-02T16:59:59.526Z,95.77
2023-02-02T17:02:31.312Z,95.78
2023-02-02T17:05:05.390Z,95.88
2023-02-02T17:07:34.806Z,95.77
2023-02-02T17:10:44.223Z,95.84
2023-02-02T17:13:32.656Z,95.89
2023-02-02T17:16:00.489Z,95.70
2023-02-02T17:18:31.994Z,95.77
2023-02-02T17:21:05.345Z,95.76
2023-02-02T17:23:32.912Z,95.93
2023-02-02T17:25:59.879Z,96.00
2023-02-02T17:28:27.771Z,95.97
2023-02-02T17:31:03.231Z,95.84
2023-02-02T17:33:34.322Z,95.97
2023-02-02T17:36:05.063Z,95.87
2023-02-02T17:38:33.731Z,95.73
2023-02-02T17:41:05.371Z,96.06
2023-02-02T17:43:33.424Z,96.08
2023-02-02T17:46:00.212Z,95.81
2023-02-02T17:48:26.752Z,95.99
2023-02-02T17:50:53.536Z,95.96
2023-02-02T17:53:21.821Z,95.94
2023-02-02T17:55:51.758Z,95.80
2023-02-02T17:58:18.718Z,95.86
2023-02-02T18:01:09.758Z,95.84
2023-02-02T18:03:39.889Z,95.89
2023-02-02T18:06:06.920Z,95.65
2023-02-02T18:08:37.609Z,95.84
2023-02-02T18:11:08.966Z,95.84
2023-02-02T18:13:35.830Z,95.83
2023-02-02T18:16:02.661Z,95.74
2023-02-02T18:18:31.904Z,95.60
2023-02-02T18:21:01.467Z,95.64
2023-02-02T18:23:29.144Z,95.49
2023-02-02T18:25:55.743Z,95.63
2023-02-02T18:28:22.308Z,95.35
2023-02-02T18:30:49.211Z,95.40
2023-02-02T18:33:20.519Z,95.64
2023-02-02T18:35:47.707Z,95.32
2023-02-02T18:38:15.136Z,95.37
2023-02-02T18:40:43.189Z,95.35
2023-02-02T18:43:10.123Z,95.22
2023-02-02T18:45:39.587Z,95.21
2023-02-02T18:48:06.451Z,95.25
2023-02-02T18:50:33.337Z,95.41
2023-02-02T18:53:01.913Z,95.22
2023-02-02T18:55:30.774Z,95.78
2023-02-02T18:57:59.775Z,95.02
2023-02-02T19:00:26.444Z,94.90
2023-02-02T19:02:53.258Z,95.01
2023-02-02T19:05:38.578Z,94.99
2023-02-02T19:08:06.128Z,95.02
2023-02-02T19:10:32.839Z,95.13
2023-02-02T19:13:05.750Z,95.15
2023-02-02T19:15:38.781Z,95.23
2023-02-02T19:18:15.477Z,95.17
2023-02-02T19:20:44.361Z,95.24
2023-02-02T19:23:17.085Z,95.00
2023-02-02T19:25:51.129Z,94.93
2023-02-02T19:28:28.287Z,95.03
2023-02-02T19:30:58.099Z,95.00
2023-02-02T19:33:43.157Z,94.91
2023-02-02T19:36:53.058Z,95.16
2023-02-02T19:39:32.833Z,94.87
2023-02-02T19:42:01.024Z,95.06
2023-02-02T19:44:34.854Z,94.80
2023-02-02T19:47:03.055Z,95.26
2023-02-02T19:49:34.835Z,95.02
2023-02-02T19:52:05.994Z,94.92
2023-02-02T19:54:44.312Z,95.14
2023-02-02T19:57:16.268Z,94.97
2023-02-02T19:59:46.698Z,94.82
2023-02-02T20:02:44.565Z,94.82
2023-02-02T20:05:11.266Z,94.90
2023-02-02T20:07:40.315Z,94.96
2023-02-02T20:10:27.664Z,94.96
2023-02-02T20:12:55.286Z,94.83
2023-02-02T20:15:31.098Z,94.97
2023-02-02T20:18:00.525Z,94.94
2023-02-02T20:20:32.839Z,94.93
2023-02-02T20:23:06.244Z,95.05
2023-02-02T20:25:38.776Z,94.88
2023-02-02T20:28:25.917Z,94.94
2023-02-02T20:30:52.923Z,95.02
2023-02-02T20:33:28.816Z,95.02
2023-02-02T20:35:56.426Z,94.95
2023-02-02T20:38:32.356Z,94.89
2023-02-02T20:40:59.720Z,94.96
2023-02-02T20:43:26.804Z,94.71
2023-02-02T20:45:53.413Z,94.71
2023-02-02T20:48:20.271Z,94.67
2023-02-02T20:50:47.232Z,94.76
2023-02-02T20:53:16.752Z,94.81
2023-02-02T20:55:44.947Z,94.75
2023-02-02T20:58:12.222Z,94.68
2023-02-02T21:00:39.515Z,94.87
2023-02-02T21:03:06.482Z,94.97
2023-02-02T21:05:32.998Z,94.86
2023-02-02T21:08:07.140Z,94.82
2023-02-02T21:10:34.738Z,94.90
2023-02-02T21:13:02.676Z,94.78
2023-02-02T21:15:29.343Z,94.66
2023-02-02T21:17:59.115Z,94.91
2023-02-02T21:20:26.055Z,94.66
2023-02-02T21:22:53.169Z,94.46
2023-02-02T21:25:19.676Z,94.34
2023-02-02T21:27:51.990Z,94.45
2023-02-02T21:30:27.398Z,94.53
2023-02-02T21:32:54.589Z,94.19
2023-02-02T21:35:25.392Z,94.32
2023-02-02T21:37:59.374Z,94.02
2023-02-02T21:40:30.336Z,93.66
2023-02-02T21:42:59.935Z,93.73
2023-02-02T21:45:33.970Z,93.57
2023-02-02T21:48:05.667Z,93.78
2023-02-02T21:50:40.361Z,93.62
2023-02-02T21:53:12.095Z,93.67
2023-02-02T21:55:45.157Z,93.40
2023-02-02T21:58:28.374Z,93.63
2023-02-02T22:01:14.600Z,93.53
2023-02-02T22:03:46.651Z,93.36
2023-02-02T22:06:36.743Z,93.34
2023-02-02T22:09:16.233Z,93.29
2023-02-02T22:12:01.665Z,93.19
2023-02-02T22:14:40.056Z,93.05
2023-02-02T22:17:19.136Z,93.09
2023-02-02T22:19:49.450Z,93.34
2023-02-02T22:22:25.631Z,92.95
2023-02-02T22:25:17.253Z,92.74
2023-02-02T22:27:49.838Z,92.77
2023-02-02T22:30:27.826Z,92.65
2023-02-02T22:32:58.081Z,92.68
2023-02-02T22:35:27.106Z,92.42
2023-02-02T22:37:54.089Z,92.30
2023-02-02T22:40:23.963Z,92.16
2023-02-02T22:42:51.709Z,92.14
2023-02-02T22:45:18.787Z,91.93
2023-02-02T22:47:47.517Z,92.01
2023-02-02T22:50:16.919Z,91.82
2023-02-02T22:52:47.356Z,91.86
2023-02-02T22:55:15.294Z,92.00
2023-02-02T22:57:41.855Z,92.02
2023-02-02T23:00:18.294Z,92.02
2023-02-02T23:02:46.306Z,91.83
2023-02-02T23:05:16.836Z,91.91
2023-02-02T23:07:49.983Z,91.82
2023-02-02T23:10:22.226Z,91.94
2023-02-02T23:12:49.871Z,92.00
2023-02-02T23:15:16.815Z,91.75
2023-02-02T23:17:43.441Z,91.81
2023-02-02T23:20:13.779Z,91.99
2023-02-02T23:22:43.178Z,91.94
2023-02-02T23:25:10.980Z,92.05
2023-02-02T23:27:38.081Z,92.09
2023-02-02T23:30:07.720Z,92.04
2023-02-02T23:32:35.219Z,92.13
2023-02-02T23:35:02.097Z,91.89
2023-02-02T23:37:28.745Z,91.85
2023-02-02T23:39:56.676Z,92.04
2023-02-02T23:42:25.420Z,91.82
2023-02-02T23:44:52.494Z,91.95
2023-02-02T23:47:19.335Z,91.61
2023-02-02T23:49:46.218Z,91.61
2023-02-02T23:52:15.135Z,91.82
2023-02-02T23:54:43.178Z,91.56
2023-02-02T23:57:13.579Z,91.71
2023-02-02T23:59:40.152Z,91.22
